Time;durP1;ratioP1;P1;durP2;ratioP2;P2;SDS_P1;SDS_P2;PMS_P1;PMS_P2;Temp;Humidity;BMP_temperature;BMP_pressure;BME280_temperature;BME280_humidity;BME280_pressure;Samples;Min_cycle;Max_cycle;Signal;HPM_P1;HPM_P2
2021/09/20 00:00:57;;;;;;;2.07;1.80;;;;;;;;;;4514583;28;20025;-65
2021/09/20 00:03:08;;;;;;;2.13;1.70;;;;;;;;;;4514178;28;20037;-66
2021/09/20 00:05:18;;;;;;;1.77;1.53;;;;;;;;;;4514576;28;20042;-66
2021/09/20 00:07:29;;;;;;;2.73;1.80;;;;;;;;;;4515837;28;20060;-67
2021/09/20 00:09:39;;;;;;;2.73;1.90;;;;;;;;;;4515469;28;20029;-65
2021/09/20 00:11:49;;;;;;;2.03;1.70;;;;;;;;;;4514814;28;25605;-66
2021/09/20 00:14:00;;;;;;;3.57;1.70;;;;;;;;;;4514147;28;20108;-66
2021/09/20 00:16:10;;;;;;;2.20;1.50;;;;;;;;;;4515792;28;20042;-65
2021/09/20 00:18:21;;;;;;;2.17;1.63;;;;;;;;;;4495917;28;24468;-66
2021/09/20 00:20:31;;;;;;;1.70;1.50;;;;;;;;;;4514898;28;20474;-66
2021/09/20 00:22:42;;;;;;;1.70;1.47;;;;;;;;;;4515101;28;20042;-66
2021/09/20 00:24:53;;;;;;;1.60;1.50;;;;;;;;;;4515331;28;21011;-66
2021/09/20 00:27:06;;;;;;;1.93;1.73;;;;;;;;;;4497009;28;28900;-66
2021/09/20 00:29:17;;;;;;;2.00;1.60;;;;;;;;;;4496308;28;20033;-66
2021/09/20 00:31:27;;;;;;;1.93;1.33;;;;;;;;;;4513627;28;20026;-66
2021/09/20 00:33:37;;;;;;;2.67;1.67;;;;;;;;;;4513923;28;21573;-66
2021/09/20 00:35:48;;;;;;;3.37;1.80;;;;;;;;;;4515603;28;20045;-66
2021/09/20 00:37:59;;;;;;;2.33;1.80;;;;;;;;;;4514696;28;20622;-66
2021/09/20 00:40:10;;;;;;;2.20;1.60;;;;;;;;;;4515746;28;20421;-66
2021/09/20 00:42:21;;;;;;;1.83;1.60;;;;;;;;;;4514535;28;20033;-65
2021/09/20 00:44:32;;;;;;;2.07;1.80;;;;;;;;;;4514985;28;20420;-66
2021/09/20 00:46:42;;;;;;;2.15;1.65;;;;;;;;;;4514001;28;20053;-65
2021/09/20 00:48:52;;;;;;;3.47;1.83;;;;;;;;;;4505873;28;20077;-66
2021/09/20 00:51:03;;;;;;;2.20;1.67;;;;;;;;;;4513581;28;23964;-66
2021/09/20 00:53:13;;;;;;;1.60;1.40;;;;;;;;;;4480132;28;20173;-66
2021/09/20 00:55:24;;;;;;;1.60;1.50;;;;;;;;;;4512921;28;22669;-65
2021/09/20 00:57:34;;;;;;;2.23;1.80;;;;;;;;;;4513618;28;41888;-66
2021/09/20 00:59:45;;;;;;;1.60;1.40;;;;;;;;;;4513409;28;20041;-67
2021/09/20 01:01:56;;;;;;;2.08;1.50;;;;;;;;;;4520500;28;20030;-65
2021/09/20 01:04:06;;;;;;;1.97;1.50;;;;;;;;;;4513477;28;20042;-65
2021/09/20 01:06:17;;;;;;;2.07;1.70;;;;;;;;;;4515403;28;20069;-65
2021/09/20 01:08:27;;;;;;;1.90;1.70;;;;;;;;;;4496792;28;20482;-65
2021/09/20 01:10:38;;;;;;;1.47;1.37;;;;;;;;;;4514494;28;20125;-66
2021/09/20 01:12:48;;;;;;;2.07;1.80;;;;;;;;;;4513634;28;20037;-66
2021/09/20 01:14:59;;;;;;;2.00;1.50;;;;;;;;;;4515555;28;20038;-65
2021/09/20 01:17:10;;;;;;;2.75;1.75;;;;;;;;;;4503886;28;20746;-65
2021/09/20 01:19:20;;;;;;;2.10;1.70;;;;;;;;;;4513987;28;20092;-65
2021/09/20 01:21:31;;;;;;;1.90;1.70;;;;;;;;;;4496230;28;27964;-66
2021/09/20 01:23:43;;;;;;;1.80;1.60;;;;;;;;;;4513008;28;20032;-66
2021/09/20 01:25:53;;;;;;;2.42;1.88;;;;;;;;;;4514467;28;20573;-66
2021/09/20 01:28:04;;;;;;;2.10;1.73;;;;;;;;;;4513784;28;20065;-66
2021/09/20 01:30:15;;;;;;;2.78;1.90;;;;;;;;;;4505679;28;20038;-66
2021/09/20 01:32:25;;;;;;;1.83;1.57;;;;;;;;;;4518399;28;20044;-66
2021/09/20 01:34:36;;;;;;;1.87;1.63;;;;;;;;;;4506332;28;20037;-66
2021/09/20 01:36:47;;;;;;;1.90;1.48;;;;;;;;;;4516711;28;20064;-65
2021/09/20 01:38:57;;;;;;;1.73;1.53;;;;;;;;;;4517606;28;20038;-66
2021/09/20 01:41:07;;;;;;;2.43;1.67;;;;;;;;;;4516928;28;32872;-66
2021/09/20 01:43:18;;;;;;;1.70;1.60;;;;;;;;;;4517519;28;31146;-66
2021/09/20 01:45:28;;;;;;;1.97;1.70;;;;;;;;;;4516872;28;20051;-65
2021/09/20 01:47:39;;;;;;;2.10;1.70;;;;;;;;;;4517962;28;20096;-65
2021/09/20 01:49:50;;;;;;;2.20;1.63;;;;;;;;;;4518013;28;20037;-66
2021/09/20 01:52:00;;;;;;;2.20;1.70;;;;;;;;;;4515307;28;36322;-66
2021/09/20 01:54:11;;;;;;;2.43;1.70;;;;;;;;;;4500590;28;20135;-67
2021/09/20 01:56:22;;;;;;;2.20;1.67;;;;;;;;;;4500452;28;20088;-66
2021/09/20 01:58:32;;;;;;;2.00;1.70;;;;;;;;;;4518041;28;20046;-65
2021/09/20 02:00:46;;;;;;;2.40;1.50;;;;;;;;;;4516810;28;38049;-65
2021/09/20 02:02:56;;;;;;;2.53;1.67;;;;;;;;;;4516925;28;20044;-65
2021/09/20 02:05:08;;;;;;;1.77;1.67;;;;;;;;;;4498786;28;39776;-66
2021/09/20 02:07:18;;;;;;;2.00;1.50;;;;;;;;;;4505721;28;20146;-66
2021/09/20 02:09:28;;;;;;;2.30;1.70;;;;;;;;;;4516548;28;34580;-66
2021/09/20 02:11:39;;;;;;;2.00;1.80;;;;;;;;;;4517252;28;20038;-66
2021/09/20 02:13:53;;;;;;;2.05;1.60;;;;;;;;;;4522339;28;20084;-66
2021/09/20 02:16:04;;;;;;;1.80;1.52;;;;;;;;;;4522048;28;20037;-65
2021/09/20 02:18:15;;;;;;;2.13;1.50;;;;;;;;;;4489343;28;20840;-65
2021/09/20 02:20:25;;;;;;;2.17;1.80;;;;;;;;;;4516777;28;20030;-64
2021/09/20 02:22:36;;;;;;;2.07;1.53;;;;;;;;;;4517067;28;20038;-64
2021/09/20 02:24:46;;;;;;;1.80;1.60;;;;;;;;;;4517169;28;21141;-64
2021/09/20 02:26:56;;;;;;;2.17;1.83;;;;;;;;;;4517570;28;20044;-64
2021/09/20 02:29:07;;;;;;;1.90;1.60;;;;;;;;;;4517450;28;21134;-64
2021/09/20 02:31:19;;;;;;;1.93;1.70;;;;;;;;;;4516993;28;20057;-64
2021/09/20 02:33:29;;;;;;;2.03;1.70;;;;;;;;;;4515888;28;20021;-64
2021/09/20 02:35:39;;;;;;;1.63;1.53;;;;;;;;;;4517427;28;20099;-64
2021/09/20 02:37:50;;;;;;;1.77;1.67;;;;;;;;;;4506333;28;20041;-64
2021/09/20 02:40:01;;;;;;;2.30;1.70;;;;;;;;;;4516959;28;20041;-64
2021/09/20 02:42:11;;;;;;;2.33;1.80;;;;;;;;;;4515177;28;34848;-63
2021/09/20 02:44:21;;;;;;;2.00;1.80;;;;;;;;;;4516936;28;40015;-64
2021/09/20 02:46:32;;;;;;;2.67;1.77;;;;;;;;;;4498148;28;20156;-64
2021/09/20 02:48:43;;;;;;;2.13;1.87;;;;;;;;;;4499036;28;20034;-64
2021/09/20 02:50:53;;;;;;;2.15;1.85;;;;;;;;;;4516563;28;35651;-64
2021/09/20 02:53:05;;;;;;;2.17;1.67;;;;;;;;;;4516909;28;20038;-64
2021/09/20 02:55:16;;;;;;;2.30;1.75;;;;;;;;;;4517489;28;21090;-65
2021/09/20 02:57:26;;;;;;;1.60;1.50;;;;;;;;;;4514614;28;20034;-65
2021/09/20 02:59:37;;;;;;;2.57;1.70;;;;;;;;;;4517352;28;20026;-64
2021/09/20 03:01:47;;;;;;;2.47;1.80;;;;;;;;;;4515492;28;31358;-64
2021/09/20 03:03:58;;;;;;;1.87;1.70;;;;;;;;;;4515484;28;20037;-64
2021/09/20 03:06:08;;;;;;;2.60;1.80;;;;;;;;;;4515710;28;20056;-64
2021/09/20 03:08:19;;;;;;;2.57;1.60;;;;;;;;;;4516953;28;20473;-64
2021/09/20 03:10:29;;;;;;;2.37;1.77;;;;;;;;;;4498833;28;20073;-65
2021/09/20 03:12:40;;;;;;;1.70;1.60;;;;;;;;;;4516186;28;20852;-64
2021/09/20 03:14:50;;;;;;;2.07;1.43;;;;;;;;;;4497497;28;20042;-64
2021/09/20 03:17:02;;;;;;;2.37;1.63;;;;;;;;;;4516134;28;35627;-64
2021/09/20 03:19:12;;;;;;;;;;;;;;;;;;4515493;28;20095;-64
2021/09/20 03:21:24;;;;;;;3.35;1.63;;;;;;;;;;4515776;28;20266;-64
2021/09/20 03:23:34;;;;;;;2.03;1.60;;;;;;;;;;4515494;28;20045;-64
2021/09/20 03:25:45;;;;;;;5.37;1.97;;;;;;;;;;4515775;28;20048;-64
2021/09/20 03:27:55;;;;;;;2.70;1.80;;;;;;;;;;4515487;28;32478;-64
2021/09/20 03:30:06;;;;;;;1.73;1.53;;;;;;;;;;4516194;28;20882;-64
2021/09/20 03:32:17;;;;;;;2.17;1.77;;;;;;;;;;4516740;28;20042;-64
2021/09/20 03:34:27;;;;;;;2.90;1.83;;;;;;;;;;4515664;28;40465;-64
2021/09/20 03:36:37;;;;;;;2.77;1.93;;;;;;;;;;4515067;28;29523;-64
2021/09/20 03:38:49;;;;;;;1.73;1.50;;;;;;;;;;4518984;28;20037;-64
2021/09/20 03:41:00;;;;;;;2.05;1.50;;;;;;;;;;4503509;28;20153;-64
2021/09/20 03:43:10;;;;;;;2.40;1.90;;;;;;;;;;4504140;28;20474;-64
2021/09/20 03:45:21;;;;;;;2.50;1.80;;;;;;;;;;4515444;28;20057;-64
2021/09/20 03:47:31;;;;;;;1.93;1.70;;;;;;;;;;4514775;28;28228;-64
2021/09/20 03:49:41;;;;;;;2.37;1.60;;;;;;;;;;4513503;28;35352;-64
2021/09/20 03:51:52;;;;;;;1.90;1.70;;;;;;;;;;4515653;28;20033;-64
2021/09/20 03:54:04;;;;;;;2.37;1.80;;;;;;;;;;4515655;28;20103;-64
2021/09/20 03:56:14;;;;;;;2.22;1.60;;;;;;;;;;4504434;28;20049;-64
2021/09/20 03:58:25;;;;;;;2.77;2.03;;;;;;;;;;4497530;28;20081;-63
2021/09/20 04:00:35;;;;;;;1.85;1.60;;;;;;;;;;4515473;28;20070;-64
2021/09/20 04:02:46;;;;;;;2.57;2.10;;;;;;;;;;4515018;28;22482;-64
2021/09/20 04:04:56;;;;;;;2.10;1.77;;;;;;;;;;4513798;28;35618;-64
2021/09/20 04:07:07;;;;;;;2.30;1.90;;;;;;;;;;4515609;28;20072;-64
2021/09/20 04:09:18;;;;;;;2.63;1.90;;;;;;;;;;4516568;28;20397;-64
2021/09/20 04:11:29;;;;;;;2.45;1.55;;;;;;;;;;4512976;28;20025;-64
2021/09/20 04:13:40;;;;;;;2.45;1.70;;;;;;;;;;4498300;28;20042;-64
2021/09/20 04:15:54;;;;;;;2.10;1.67;;;;;;;;;;4515448;28;20029;-64
2021/09/20 04:18:05;;;;;;;2.25;1.77;;;;;;;;;;4515026;28;20044;-65
2021/09/20 04:20:16;;;;;;;2.10;1.70;;;;;;;;;;4513925;28;20667;-64
2021/09/20 04:22:26;;;;;;;2.60;1.90;;;;;;;;;;4515552;28;20064;-64
2021/09/20 04:24:37;;;;;;;2.50;1.60;;;;;;;;;;4514489;28;35366;-64
2021/09/20 04:26:47;;;;;;;2.37;1.80;;;;;;;;;;4513744;28;20087;-64
2021/09/20 04:28:58;;;;;;;2.20;1.83;;;;;;;;;;4514697;28;20048;-64
2021/09/20 04:31:08;;;;;;;1.70;1.60;;;;;;;;;;4516321;28;20037;-64
2021/09/20 04:33:20;;;;;;;2.23;1.70;;;;;;;;;;4503777;28;20042;-64
2021/09/20 04:35:30;;;;;;;3.50;2.10;;;;;;;;;;4515193;28;20025;-65
2021/09/20 04:37:41;;;;;;;1.97;1.73;;;;;;;;;;4514872;28;36675;-66
2021/09/20 04:39:51;;;;;;;2.27;1.90;;;;;;;;;;4514183;28;20040;-65
2021/09/20 04:42:02;;;;;;;2.20;1.70;;;;;;;;;;4515463;28;23616;-65
2021/09/20 04:44:13;;;;;;;2.03;1.63;;;;;;;;;;4514817;28;20187;-65
2021/09/20 04:46:23;;;;;;;2.93;2.00;;;;;;;;;;4516020;28;20042;-65
2021/09/20 04:48:34;;;;;;;2.77;2.10;;;;;;;;;;4514586;28;20037;-65
2021/09/20 04:50:46;;;;;;;1.90;1.70;;;;;;;;;;4496012;28;35742;-65
2021/09/20 04:52:56;;;;;;;2.13;1.58;;;;;;;;;;4515359;28;20041;-65
2021/09/20 04:55:07;;;;;;;2.10;1.80;;;;;;;;;;4515516;28;20524;-65
2021/09/20 04:57:18;;;;;;;1.95;1.58;;;;;;;;;;4514747;28;20034;-65
2021/09/20 04:59:28;;;;;;;2.43;1.67;;;;;;;;;;4513792;28;31083;-65
2021/09/20 05:01:39;;;;;;;2.93;1.70;;;;;;;;;;4514377;28;20523;-64
2021/09/20 05:03:49;;;;;;;3.30;2.13;;;;;;;;;;4502724;28;20033;-65
2021/09/20 05:05:59;;;;;;;2.63;2.03;;;;;;;;;;4518499;28;41423;-65
2021/09/20 05:08:12;;;;;;;3.10;2.00;;;;;;;;;;4506987;28;20038;-64
2021/09/20 05:10:22;;;;;;;3.03;1.80;;;;;;;;;;4501582;28;20042;-65
2021/09/20 05:12:33;;;;;;;2.70;1.80;;;;;;;;;;4517128;28;20036;-65
2021/09/20 05:14:44;;;;;;;2.70;1.93;;;;;;;;;;4497659;28;20536;-64
2021/09/20 05:16:58;;;;;;;2.33;1.85;;;;;;;;;;4499312;28;20022;-65
2021/09/20 05:19:08;;;;;;;2.50;1.80;;;;;;;;;;4516379;28;20049;-65
2021/09/20 05:21:18;;;;;;;3.53;1.90;;;;;;;;;;4516340;28;35106;-65
2021/09/20 05:23:29;;;;;;;2.30;1.93;;;;;;;;;;4498743;28;20065;-64
2021/09/20 05:25:40;;;;;;;3.25;1.90;;;;;;;;;;4518027;28;20569;-64
2021/09/20 05:27:52;;;;;;;3.00;1.93;;;;;;;;;;4516810;28;20482;-65
2021/09/20 05:30:03;;;;;;;1.90;1.70;;;;;;;;;;4518106;28;20136;-64
2021/09/20 05:32:13;;;;;;;3.38;1.80;;;;;;;;;;4505871;28;20164;-64
2021/09/20 05:34:27;;;;;;;2.63;1.80;;;;;;;;;;4522040;28;20588;-64
2021/09/20 05:36:37;;;;;;;2.58;1.90;;;;;;;;;;4518137;28;20045;-64
2021/09/20 05:38:48;;;;;;;2.13;1.63;;;;;;;;;;4516106;28;21190;-65
2021/09/20 05:40:58;;;;;;;2.40;1.73;;;;;;;;;;4516855;28;38239;-64
2021/09/20 05:43:09;;;;;;;2.57;2.00;;;;;;;;;;4506012;28;20038;-65
2021/09/20 05:45:20;;;;;;;3.10;1.83;;;;;;;;;;4517292;28;20839;-65
2021/09/20 05:47:30;;;;;;;2.00;1.70;;;;;;;;;;4517101;28;34932;-65
2021/09/20 05:49:41;;;;;;;2.77;1.80;;;;;;;;;;4515468;28;20037;-65
2021/09/20 05:51:51;;;;;;;2.90;1.87;;;;;;;;;;4515626;28;20728;-64
2021/09/20 05:54:02;;;;;;;2.53;1.87;;;;;;;;;;4516807;28;20112;-64
2021/09/20 05:56:13;;;;;;;2.55;2.00;;;;;;;;;;4505111;28;20030;-64
2021/09/20 05:58:23;;;;;;;2.37;1.90;;;;;;;;;;4518175;28;20037;-64
2021/09/20 06:00:34;;;;;;;3.03;1.93;;;;;;;;;;4480916;28;20474;-64
2021/09/20 06:02:44;;;;;;;2.45;1.77;;;;;;;;;;4514106;28;20029;-64
2021/09/20 06:04:55;;;;;;;2.83;1.70;;;;;;;;;;4496244;28;23267;-64
2021/09/20 06:07:05;;;;;;;3.73;1.83;;;;;;;;;;4514857;28;20034;-64
2021/09/20 06:09:16;;;;;;;2.63;1.90;;;;;;;;;;4517317;28;20113;-64
2021/09/20 06:11:27;;;;;;;3.83;2.22;;;;;;;;;;4516216;28;20584;-64
2021/09/20 06:13:38;;;;;;;2.65;1.80;;;;;;;;;;4516615;28;20045;-64
2021/09/20 06:15:50;;;;;;;3.00;2.10;;;;;;;;;;4506336;28;20033;-64
2021/09/20 06:18:01;;;;;;;2.78;2.00;;;;;;;;;;4515740;28;21017;-63
2021/09/20 06:20:12;;;;;;;;;;;;;;;;;;4517352;28;20038;-63
2021/09/20 06:22:22;;;;;;;2.92;1.75;;;;;;;;;;4499883;28;19913;-64
2021/09/20 06:24:33;;;;;;;2.67;1.90;;;;;;;;;;4506963;28;20041;-64
2021/09/20 06:26:43;;;;;;;1.73;1.63;;;;;;;;;;4505044;28;20041;-64
2021/09/20 06:28:54;;;;;;;2.53;1.70;;;;;;;;;;4515816;28;20478;-63
2021/09/20 06:31:04;;;;;;;3.03;2.17;;;;;;;;;;4515371;28;20041;-64
2021/09/20 06:33:15;;;;;;;2.40;1.90;;;;;;;;;;4516440;28;20545;-63
2021/09/20 06:35:26;;;;;;;2.35;1.85;;;;;;;;;;4517368;28;20041;-64
2021/09/20 06:37:38;;;;;;;2.53;1.87;;;;;;;;;;4515523;28;20043;-63
2021/09/20 06:39:48;;;;;;;2.60;1.90;;;;;;;;;;4505140;28;20608;-64
2021/09/20 06:42:01;;;;;;;2.60;1.90;;;;;;;;;;4516827;28;20127;-64
2021/09/20 06:44:12;;;;;;;2.85;2.22;;;;;;;;;;4516364;28;20030;-63
2021/09/20 06:46:23;;;;;;;2.00;1.80;;;;;;;;;;4515320;28;20572;-63
2021/09/20 06:48:34;;;;;;;2.60;1.88;;;;;;;;;;4516010;28;20041;-64
2021/09/20 06:50:45;;;;;;;2.70;1.90;;;;;;;;;;4505060;28;20058;-63
2021/09/20 06:52:56;;;;;;;2.90;2.22;;;;;;;;;;4515779;28;20025;-66
2021/09/20 06:55:07;;;;;;;1.97;1.77;;;;;;;;;;4498547;28;20798;-63
2021/09/20 06:57:18;;;;;;;2.20;1.85;;;;;;;;;;4514862;28;20037;-63
2021/09/20 06:59:28;;;;;;;2.47;2.00;;;;;;;;;;4516331;28;20038;-63
2021/09/20 07:01:39;;;;;;;3.00;1.77;;;;;;;;;;4514128;28;35587;-64
2021/09/20 07:03:49;;;;;;;2.73;2.00;;;;;;;;;;4514835;28;23180;-63
2021/09/20 07:05:59;;;;;;;3.07;2.20;;;;;;;;;;4515325;28;20045;-63
2021/09/20 07:08:10;;;;;;;2.90;2.30;;;;;;;;;;4514566;28;20041;-64
2021/09/20 07:10:20;;;;;;;2.27;1.80;;;;;;;;;;4514609;28;41044;-65
2021/09/20 07:12:31;;;;;;;3.03;2.10;;;;;;;;;;4516468;28;20041;-64
2021/09/20 07:14:42;;;;;;;3.07;2.00;;;;;;;;;;4515809;28;29283;-62
2021/09/20 07:16:52;;;;;;;2.40;1.92;;;;;;;;;;4514660;28;20596;-63
2021/09/20 07:19:03;;;;;;;2.20;1.90;;;;;;;;;;4515632;28;20046;-63
2021/09/20 07:21:13;;;;;;;2.20;1.77;;;;;;;;;;4472286;28;20037;-64
2021/09/20 07:23:24;;;;;;;2.60;1.87;;;;;;;;;;4513933;28;20497;-64
2021/09/20 07:25:34;;;;;;;2.10;1.70;;;;;;;;;;4514882;28;28214;-63
2021/09/20 07:27:45;;;;;;;3.07;2.00;;;;;;;;;;4513267;28;20026;-63
2021/09/20 07:29:55;;;;;;;2.63;2.13;;;;;;;;;;4513414;28;30471;-63
2021/09/20 07:32:06;;;;;;;2.63;2.00;;;;;;;;;;4515789;28;20063;-64
2021/09/20 07:34:16;;;;;;;2.80;2.20;;;;;;;;;;4515429;28;20033;-64
2021/09/20 07:36:26;;;;;;;2.73;2.27;;;;;;;;;;4515421;28;20052;-64
2021/09/20 07:38:37;;;;;;;3.23;2.13;;;;;;;;;;4515740;28;21609;-64
2021/09/20 07:40:48;;;;;;;2.60;2.00;;;;;;;;;;4515128;28;20037;-64
2021/09/20 07:42:59;;;;;;;2.53;2.10;;;;;;;;;;4513255;28;20037;-64
2021/09/20 07:45:10;;;;;;;3.13;2.00;;;;;;;;;;4515605;28;20093;-64
2021/09/20 07:47:20;;;;;;;2.10;1.90;;;;;;;;;;4514218;28;20044;-64
2021/09/20 07:49:32;;;;;;;3.43;2.20;;;;;;;;;;4504184;28;20029;-64
2021/09/20 07:51:43;;;;;;;2.55;1.98;;;;;;;;;;4503236;28;20209;-64
2021/09/20 07:53:53;;;;;;;3.87;2.20;;;;;;;;;;4514220;28;20033;-64
2021/09/20 07:56:04;;;;;;;2.50;2.10;;;;;;;;;;4514827;28;29562;-64
2021/09/20 07:58:14;;;;;;;3.70;1.90;;;;;;;;;;4496028;28;20089;-64
2021/09/20 08:00:25;;;;;;;2.40;2.00;;;;;;;;;;4515369;28;20504;-64
2021/09/20 08:02:35;;;;;;;4.23;2.10;;;;;;;;;;4515100;28;20033;-64
2021/09/20 08:04:46;;;;;;;3.00;2.17;;;;;;;;;;4504317;28;20049;-63
2021/09/20 08:06:56;;;;;;;2.80;2.20;;;;;;;;;;4515335;28;20059;-64
2021/09/20 08:09:07;;;;;;;2.90;2.30;;;;;;;;;;4498117;28;20109;-64
2021/09/20 08:11:17;;;;;;;2.73;2.13;;;;;;;;;;4514786;28;20462;-65
2021/09/20 08:13:28;;;;;;;3.63;2.50;;;;;;;;;;4494882;28;21809;-64
2021/09/20 08:15:38;;;;;;;3.37;2.20;;;;;;;;;;4496518;28;20030;-63
2021/09/20 08:17:49;;;;;;;2.63;1.90;;;;;;;;;;4514011;28;20471;-64
2021/09/20 08:20:00;;;;;;;2.50;1.90;;;;;;;;;;4515032;28;20034;-64
2021/09/20 08:22:11;;;;;;;4.72;2.45;;;;;;;;;;4502713;28;20029;-63
2021/09/20 08:24:21;;;;;;;2.50;1.90;;;;;;;;;;4515150;28;20398;-64
2021/09/20 08:26:32;;;;;;;2.70;2.00;;;;;;;;;;4514132;28;20084;-64
2021/09/20 08:28:42;;;;;;;3.60;1.93;;;;;;;;;;4512846;28;20056;-64
2021/09/20 08:30:53;;;;;;;2.90;1.73;;;;;;;;;;4515225;28;20029;-64
2021/09/20 08:33:04;;;;;;;2.93;2.20;;;;;;;;;;4495712;28;20050;-64
2021/09/20 08:35:14;;;;;;;3.33;2.10;;;;;;;;;;4514416;28;20033;-64
2021/09/20 08:37:25;;;;;;;2.28;1.77;;;;;;;;;;4497107;28;20045;-64
2021/09/20 08:39:35;;;;;;;2.70;1.90;;;;;;;;;;4486701;28;20046;-63
2021/09/20 08:41:46;;;;;;;2.53;1.90;;;;;;;;;;4488279;28;20057;-63
2021/09/20 08:43:56;;;;;;;2.17;1.70;;;;;;;;;;4513349;28;30550;-64
2021/09/20 08:46:07;;;;;;;2.50;1.50;;;;;;;;;;4513541;28;20034;-68
2021/09/20 08:48:17;;;;;;;2.00;1.60;;;;;;;;;;4503155;28;20038;-64
2021/09/20 08:50:37;;;;;;;3.17;1.50;;;;;;;;;;4514076;28;20056;-64
2021/09/20 08:52:47;;;;;;;2.17;1.42;;;;;;;;;;4496944;28;20038;-64
2021/09/20 08:54:58;;;;;;;1.93;1.63;;;;;;;;;;4502254;28;20038;-64
2021/09/20 08:57:09;;;;;;;2.30;1.30;;;;;;;;;;4513471;28;20033;-64
2021/09/20 08:59:20;;;;;;;1.50;1.20;;;;;;;;;;4513077;28;20042;-61
2021/09/20 09:01:31;;;;;;;1.98;1.33;;;;;;;;;;4510620;28;20030;-61
2021/09/20 09:03:41;;;;;;;1.95;1.30;;;;;;;;;;4493133;28;20031;-62
2021/09/20 09:05:52;;;;;;;1.77;1.20;;;;;;;;;;4513854;28;20049;-62
2021/09/20 09:08:05;;;;;;;1.70;1.35;;;;;;;;;;4519322;28;20229;-63
2021/09/20 09:10:17;;;;;;;1.63;1.15;;;;;;;;;;4511723;28;20030;-64
2021/09/20 09:12:32;;;;;;;1.20;1.10;;;;;;;;;;4514854;28;20081;-63
2021/09/20 09:14:54;;;;;;;2.75;1.00;;;;;;;;;;4513681;28;20022;-64
2021/09/20 09:17:13;;;;;;;0.88;0.88;;;;;;;;;;4513890;28;20037;-64
2021/09/20 09:19:23;;;;;;;1.48;1.05;;;;;;;;;;4514379;28;21077;-64
2021/09/20 09:21:42;;;;;;;2.30;1.00;;;;;;;;;;4513098;28;20041;-64
2021/09/20 09:24:02;;;;;;;1.50;1.10;;;;;;;;;;4512022;28;20092;-64
2021/09/20 09:26:22;;;;;;;1.20;1.00;;;;;;;;;;4496216;28;20046;-64
2021/09/20 09:28:32;;;;;;;1.30;1.10;;;;;;;;;;4496400;28;20037;-64
2021/09/20 09:30:46;;;;;;;1.00;0.90;;;;;;;;;;4513991;28;20517;-64
2021/09/20 09:33:23;;;;;;;1.08;0.90;;;;;;;;;;4514683;28;20785;-64
2021/09/20 09:35:35;;;;;;;1.88;0.90;;;;;;;;;;4510072;28;21244;-64
2021/09/20 09:37:47;;;;;;;1.50;0.93;;;;;;;;;;4503061;28;20030;-64
2021/09/20 09:40:17;;;;;;;0.70;0.70;;;;;;;;;;4503618;28;20659;-64
2021/09/20 09:42:29;;;;;;;0.95;0.82;;;;;;;;;;4515062;28;20041;-63
2021/09/20 09:44:39;;;;;;;0.80;0.80;;;;;;;;;;4513490;28;20033;-64
2021/09/20 09:46:50;;;;;;;1.17;0.77;;;;;;;;;;4514793;28;20042;-64
2021/09/20 09:49:10;;;;;;;0.77;0.60;;;;;;;;;;4514207;28;26477;-64
2021/09/20 09:51:20;;;;;;;1.05;0.70;;;;;;;;;;4521631;28;20029;-64
2021/09/20 09:53:38;;;;;;;1.13;0.90;;;;;;;;;;4517112;28;20500;-64
2021/09/20 09:55:48;;;;;;;1.50;0.95;;;;;;;;;;4516827;28;20508;-63
2021/09/20 09:58:10;;;;;;;1.10;0.70;;;;;;;;;;4515570;28;20046;-64
2021/09/20 10:00:22;;;;;;;0.93;0.80;;;;;;;;;;4517166;28;20049;-64
2021/09/20 10:02:34;;;;;;;1.50;1.20;;;;;;;;;;4499680;28;20043;-64
2021/09/20 10:05:00;;;;;;;1.30;0.93;;;;;;;;;;4514397;28;20033;-64
2021/09/20 10:07:21;;;;;;;0.73;0.73;;;;;;;;;;4515522;28;20207;-63
2021/09/20 10:09:32;;;;;;;2.92;0.93;;;;;;;;;;4498280;28;20034;-64
2021/09/20 10:11:44;;;;;;;1.27;1.00;;;;;;;;;;4497993;28;20096;-63
2021/09/20 10:13:55;;;;;;;0.95;0.80;;;;;;;;;;4507834;28;20034;-63
2021/09/20 10:16:05;;;;;;;1.10;0.80;;;;;;;;;;4504996;28;34150;-63
2021/09/20 10:18:16;;;;;;;0.90;0.73;;;;;;;;;;4505706;28;20038;-64
2021/09/20 10:20:28;;;;;;;2.00;0.87;;;;;;;;;;4505589;28;20530;-64
2021/09/20 10:22:38;;;;;;;1.23;0.93;;;;;;;;;;4508133;28;20021;-63
2021/09/20 10:24:51;;;;;;;1.33;0.80;;;;;;;;;;4505077;28;20041;-63
2021/09/20 10:27:01;;;;;;;1.25;0.70;;;;;;;;;;4508732;28;20038;-63
2021/09/20 10:29:15;;;;;;;2.00;1.50;;;;;;;;;;4498221;28;20418;-63
2021/09/20 10:31:27;;;;;;;0.88;0.80;;;;;;;;;;4498004;28;20041;-64
2021/09/20 10:33:37;;;;;;;1.02;0.75;;;;;;;;;;4504992;28;20094;-63
2021/09/20 10:35:53;;;;;;;0.87;0.80;;;;;;;;;;4515610;28;21778;-63
2021/09/20 10:38:23;;;;;;;1.88;1.10;;;;;;;;;;4515249;28;20049;-63
2021/09/20 10:40:34;;;;;;;1.63;0.90;;;;;;;;;;4515606;28;20088;-63
2021/09/20 10:42:52;;;;;;;1.80;1.00;;;;;;;;;;4505359;28;20045;-64
2021/09/20 10:45:05;;;;;;;1.20;0.90;;;;;;;;;;4514787;28;20044;-63
2021/09/20 10:47:16;;;;;;;0.85;0.77;;;;;;;;;;4504848;28;20040;-63
2021/09/20 10:49:28;;;;;;;0.80;0.75;;;;;;;;;;4515625;28;20591;-63
2021/09/20 10:51:40;;;;;;;0.75;0.73;;;;;;;;;;4515855;28;20072;-63
2021/09/20 10:54:13;;;;;;;0.98;0.85;;;;;;;;;;4515082;28;20032;-63
2021/09/20 10:56:32;;;;;;;1.05;0.90;;;;;;;;;;4514618;28;20076;-63
2021/09/20 10:58:52;;;;;;;0.85;0.80;;;;;;;;;;4515416;28;20108;-63
2021/09/20 11:01:11;;;;;;;0.90;0.70;;;;;;;;;;4516399;28;20060;-64
2021/09/20 11:04:01;;;;;;;0.85;0.80;;;;;;;;;;4513044;28;20030;-63
2021/09/20 11:06:29;;;;;;;1.10;0.90;;;;;;;;;;4452569;28;20051;-63
2021/09/20 11:08:39;;;;;;;1.83;0.95;;;;;;;;;;4502723;28;20561;-64
2021/09/20 11:10:49;;;;;;;1.17;0.83;;;;;;;;;;4515619;28;20520;-65
2021/09/20 11:13:05;;;;;;;0.90;0.80;;;;;;;;;;4515229;28;20033;-63
2021/09/20 11:15:19;;;;;;;0.80;0.70;;;;;;;;;;4515795;28;20404;-62
2021/09/20 11:17:41;;;;;;;0.80;0.70;;;;;;;;;;4514957;28;20038;-63
2021/09/20 11:19:55;;;;;;;1.02;0.80;;;;;;;;;;4515985;28;20549;-63
2021/09/20 11:22:05;;;;;;;1.10;0.98;;;;;;;;;;4497945;28;20088;-63
2021/09/20 11:24:16;;;;;;;1.63;0.87;;;;;;;;;;4515632;28;20091;-63
2021/09/20 11:26:31;;;;;;;1.30;0.80;;;;;;;;;;4515686;28;20068;-63
2021/09/20 11:28:53;;;;;;;1.35;0.80;;;;;;;;;;4502541;28;20038;-63
2021/09/20 11:31:04;;;;;;;2.00;0.90;;;;;;;;;;4513500;28;20037;-63
2021/09/20 11:33:14;;;;;;;0.88;0.80;;;;;;;;;;4503257;28;20054;-63
2021/09/20 11:35:27;;;;;;;0.70;0.60;;;;;;;;;;4514110;28;23428;-63
2021/09/20 11:37:37;;;;;;;1.35;0.80;;;;;;;;;;4496287;28;20031;-62
2021/09/20 11:40:10;;;;;;;1.17;0.80;;;;;;;;;;4496179;28;20800;-63
2021/09/20 11:42:37;;;;;;;0.85;0.85;;;;;;;;;;4486823;28;20088;-63
2021/09/20 11:44:53;;;;;;;1.65;1.00;;;;;;;;;;4503165;28;20030;-63
2021/09/20 11:47:04;;;;;;;1.55;0.80;;;;;;;;;;4502514;28;20042;-63
2021/09/20 11:49:17;;;;;;;0.90;0.80;;;;;;;;;;4497357;28;38255;-64
2021/09/20 11:51:28;;;;;;;1.13;1.02;;;;;;;;;;4513540;28;21908;-63
2021/09/20 11:53:38;;;;;;;1.88;0.90;;;;;;;;;;4512183;28;20041;-64
2021/09/20 11:55:50;;;;;;;1.47;1.10;;;;;;;;;;4515384;28;20029;-64
2021/09/20 11:58:06;;;;;;;0.98;0.90;;;;;;;;;;4515190;28;20730;-63
2021/09/20 12:00:18;;;;;;;2.80;1.70;;;;;;;;;;4504288;28;20768;-63
2021/09/20 12:02:31;;;;;;;3.78;2.22;;;;;;;;;;4483284;28;20729;-63
2021/09/20 12:04:49;;;;;;;2.13;1.38;;;;;;;;;;4503529;28;20956;-64
2021/09/20 12:06:59;;;;;;;4.95;2.80;;;;;;;;;;4516668;28;20145;-64
2021/09/20 12:09:11;;;;;;;4.87;3.07;;;;;;;;;;4515418;28;20552;-63
2021/09/20 12:11:22;;;;;;;5.18;2.72;;;;;;;;;;4504678;28;20505;-64
2021/09/20 12:13:35;;;;;;;4.15;2.75;;;;;;;;;;4516066;28;20041;-63
2021/09/20 12:15:47;;;;;;;1.38;0.90;;;;;;;;;;4498095;28;20042;-63
2021/09/20 12:18:03;;;;;;;0.75;0.63;;;;;;;;;;4516505;28;20033;-63
2021/09/20 12:20:14;;;;;;;0.90;0.73;;;;;;;;;;4515274;28;20495;-63
2021/09/20 12:22:39;;;;;;;0.80;0.70;;;;;;;;;;4498070;28;20708;-63
2021/09/20 12:24:49;;;;;;;1.10;1.00;;;;;;;;;;4517863;28;20064;-63
2021/09/20 12:27:06;;;;;;;1.37;1.03;;;;;;;;;;4498615;28;20061;-63
2021/09/20 12:29:16;;;;;;;0.93;0.80;;;;;;;;;;4519920;28;20044;-64
2021/09/20 12:31:40;;;;;;;1.97;1.10;;;;;;;;;;4514535;28;20036;-64
2021/09/20 12:34:00;;;;;;;1.13;0.80;;;;;;;;;;4514555;28;20050;-62
2021/09/20 12:36:23;;;;;;;1.75;0.90;;;;;;;;;;4514431;28;20033;-63
2021/09/20 12:38:35;;;;;;;0.88;0.70;;;;;;;;;;4500538;28;20141;-63
2021/09/20 12:40:47;;;;;;;1.00;0.60;;;;;;;;;;4502108;28;20038;-63
2021/09/20 12:43:36;;;;;;;2.10;0.70;;;;;;;;;;4482208;28;20129;-63
2021/09/20 12:45:46;;;;;;;1.50;0.80;;;;;;;;;;4437913;28;20079;-64
2021/09/20 12:47:57;;;;;;;1.13;0.90;;;;;;;;;;4446825;28;20139;-63
2021/09/20 12:50:10;;;;;;;1.37;0.90;;;;;;;;;;4447975;28;20784;-63
2021/09/20 12:52:26;;;;;;;2.08;1.02;;;;;;;;;;4430437;28;20047;-63
2021/09/20 12:54:36;;;;;;;3.05;1.60;;;;;;;;;;4434721;28;20043;-63
2021/09/20 12:56:48;;;;;;;2.53;1.30;;;;;;;;;;4448215;28;20047;-63
2021/09/20 12:59:15;;;;;;;1.30;0.77;;;;;;;;;;4447582;28;20051;-63
2021/09/20 13:01:27;;;;;;;1.13;0.90;;;;;;;;;;4448407;28;20580;-64
2021/09/20 13:03:41;;;;;;;1.02;0.85;;;;;;;;;;4448911;28;20043;-64
2021/09/20 13:05:55;;;;;;;0.95;0.80;;;;;;;;;;4435580;28;20052;-64
2021/09/20 13:08:06;;;;;;;2.92;1.50;;;;;;;;;;4447212;28;20031;-64
2021/09/20 13:10:16;;;;;;;1.25;0.90;;;;;;;;;;4447056;28;20078;-64
2021/09/20 13:12:50;;;;;;;0.90;0.77;;;;;;;;;;4449787;28;20047;-64